sensor_id;sensor_type;location;lat;lon;timestamp;P1;durP1;ratioP1;P2;durP2;ratioP2
10586;SDS011;5341;47.606;7.576;2022-08-19T00:01:57;7.78;;;3.50;;
10586;SDS011;5341;47.606;7.576;2022-08-19T00:04:26;4.28;;;3.55;;
10586;SDS011;5341;47.606;7.576;2022-08-19T00:06:56;4.88;;;3.72;;
10586;SDS011;5341;47.606;7.576;2022-08-19T00:09:25;5.35;;;3.83;;
10586;SDS011;5341;47.606;7.576;2022-08-19T00:11:54;7.35;;;3.72;;
10586;SDS011;5341;47.606;7.576;2022-08-19T00:14:23;4.18;;;3.88;;
10586;SDS011;5341;47.606;7.576;2022-08-19T00:16:52;4.57;;;3.90;;
10586;SDS011;5341;47.606;7.576;2022-08-19T00:19:21;8.52;;;4.15;;
10586;SDS011;5341;47.606;7.576;2022-08-19T00:21:49;5.70;;;3.85;;
10586;SDS011;5341;47.606;7.576;2022-08-19T00:24:18;6.13;;;3.95;;
10586;SDS011;5341;47.606;7.576;2022-08-19T00:26:45;7.45;;;4.00;;
10586;SDS011;5341;47.606;7.576;2022-08-19T00:29:15;6.82;;;4.00;;
10586;SDS011;5341;47.606;7.576;2022-08-19T00:31:45;7.00;;;4.60;;
10586;SDS011;5341;47.606;7.576;2022-08-19T00:34:13;4.57;;;4.18;;
10586;SDS011;5341;47.606;7.576;2022-08-19T00:36:41;3.90;;;3.60;;
10586;SDS011;5341;47.606;7.576;2022-08-19T00:39:09;4.97;;;4.00;;
10586;SDS011;5341;47.606;7.576;2022-08-19T00:41:38;8.25;;;4.50;;
10586;SDS011;5341;47.606;7.576;2022-08-19T00:44:07;6.00;;;4.30;;
10586;SDS011;5341;47.606;7.576;2022-08-19T00:46:40;4.80;;;4.30;;
10586;SDS011;5341;47.606;7.576;2022-08-19T00:49:10;5.93;;;4.28;;
10586;SDS011;5341;47.606;7.576;2022-08-19T00:51:41;5.10;;;4.20;;
10586;SDS011;5341;47.606;7.576;2022-08-19T00:54:11;5.10;;;4.60;;
10586;SDS011;5341;47.606;7.576;2022-08-19T00:56:39;6.55;;;3.90;;
10586;SDS011;5341;47.606;7.576;2022-08-19T00:59:08;4.88;;;4.00;;
10586;SDS011;5341;47.606;7.576;2022-08-19T01:01:36;4.75;;;4.03;;
10586;SDS011;5341;47.606;7.576;2022-08-19T01:04:07;4.95;;;3.85;;
10586;SDS011;5341;47.606;7.576;2022-08-19T01:06:35;4.80;;;4.38;;
10586;SDS011;5341;47.606;7.576;2022-08-19T01:09:05;4.38;;;4.00;;
10586;SDS011;5341;47.606;7.576;2022-08-19T01:11:34;6.07;;;4.07;;
10586;SDS011;5341;47.606;7.576;2022-08-19T01:14:08;4.63;;;3.92;;
10586;SDS011;5341;47.606;7.576;2022-08-19T01:16:36;5.38;;;4.10;;
10586;SDS011;5341;47.606;7.576;2022-08-19T01:19:09;4.22;;;3.83;;
10586;SDS011;5341;47.606;7.576;2022-08-19T01:21:43;4.53;;;4.00;;
10586;SDS011;5341;47.606;7.576;2022-08-19T01:24:20;5.35;;;3.75;;
10586;SDS011;5341;47.606;7.576;2022-08-19T01:26:48;6.85;;;4.47;;
10586;SDS011;5341;47.606;7.576;2022-08-19T01:29:15;4.80;;;4.35;;
10586;SDS011;5341;47.606;7.576;2022-08-19T01:31:43;5.45;;;4.20;;
10586;SDS011;5341;47.606;7.576;2022-08-19T01:34:10;5.97;;;4.30;;
10586;SDS011;5341;47.606;7.576;2022-08-19T01:36:40;5.75;;;4.75;;
10586;SDS011;5341;47.606;7.576;2022-08-19T01:39:12;8.32;;;4.93;;
10586;SDS011;5341;47.606;7.576;2022-08-19T01:41:42;7.18;;;4.72;;
10586;SDS011;5341;47.606;7.576;2022-08-19T01:44:09;5.15;;;4.50;;
10586;SDS011;5341;47.606;7.576;2022-08-19T01:46:37;5.25;;;4.75;;
10586;SDS011;5341;47.606;7.576;2022-08-19T01:49:05;8.20;;;4.97;;
10586;SDS011;5341;47.606;7.576;2022-08-19T01:51:34;7.30;;;4.90;;
10586;SDS011;5341;47.606;7.576;2022-08-19T01:54:02;5.63;;;4.90;;
10586;SDS011;5341;47.606;7.576;2022-08-19T01:56:30;5.30;;;4.25;;
10586;SDS011;5341;47.606;7.576;2022-08-19T01:59:00;7.97;;;4.93;;
10586;SDS011;5341;47.606;7.576;2022-08-19T02:01:31;6.50;;;4.60;;
10586;SDS011;5341;47.606;7.576;2022-08-19T02:03:59;6.72;;;4.30;;
10586;SDS011;5341;47.606;7.576;2022-08-19T02:06:26;5.03;;;4.63;;
10586;SDS011;5341;47.606;7.576;2022-08-19T02:08:54;5.53;;;4.50;;
10586;SDS011;5341;47.606;7.576;2022-08-19T02:11:23;7.43;;;4.80;;
10586;SDS011;5341;47.606;7.576;2022-08-19T02:13:53;8.60;;;4.88;;
10586;SDS011;5341;47.606;7.576;2022-08-19T02:16:22;6.85;;;4.40;;
10586;SDS011;5341;47.606;7.576;2022-08-19T02:18:50;6.80;;;4.78;;
10586;SDS011;5341;47.606;7.576;2022-08-19T02:21:18;6.07;;;4.30;;
10586;SDS011;5341;47.606;7.576;2022-08-19T02:23:47;6.90;;;4.53;;
10586;SDS011;5341;47.606;7.576;2022-08-19T02:26:15;6.03;;;4.95;;
10586;SDS011;5341;47.606;7.576;2022-08-19T02:28:44;5.93;;;4.70;;
10586;SDS011;5341;47.606;7.576;2022-08-19T02:31:12;7.45;;;4.63;;
10586;SDS011;5341;47.606;7.576;2022-08-19T02:33:43;5.28;;;4.72;;
10586;SDS011;5341;47.606;7.576;2022-08-19T02:36:11;5.00;;;4.55;;
10586;SDS011;5341;47.606;7.576;2022-08-19T02:38:40;6.50;;;4.18;;
10586;SDS011;5341;47.606;7.576;2022-08-19T02:41:08;4.78;;;4.38;;
10586;SDS011;5341;47.606;7.576;2022-08-19T02:43:40;6.40;;;4.90;;
10586;SDS011;5341;47.606;7.576;2022-08-19T02:46:11;4.88;;;4.35;;
10586;SDS011;5341;47.606;7.576;2022-08-19T02:48:42;4.93;;;4.25;;
10586;SDS011;5341;47.606;7.576;2022-08-19T02:51:15;7.07;;;4.10;;
10586;SDS011;5341;47.606;7.576;2022-08-19T02:53:44;5.45;;;4.30;;
10586;SDS011;5341;47.606;7.576;2022-08-19T02:56:12;8.48;;;4.10;;
10586;SDS011;5341;47.606;7.576;2022-08-19T02:58:39;4.40;;;4.00;;
10586;SDS011;5341;47.606;7.576;2022-08-19T03:01:08;5.88;;;3.70;;
10586;SDS011;5341;47.606;7.576;2022-08-19T03:03:38;4.25;;;3.80;;
10586;SDS011;5341;47.606;7.576;2022-08-19T03:06:08;4.45;;;3.80;;
10586;SDS011;5341;47.606;7.576;2022-08-19T03:08:39;5.30;;;3.88;;
10586;SDS011;5341;47.606;7.576;2022-08-19T03:11:12;4.10;;;3.70;;
10586;SDS011;5341;47.606;7.576;2022-08-19T03:13:41;5.47;;;3.40;;
10586;SDS011;5341;47.606;7.576;2022-08-19T03:16:09;4.35;;;3.40;;
10586;SDS011;5341;47.606;7.576;2022-08-19T03:18:38;6.30;;;3.45;;
10586;SDS011;5341;47.606;7.576;2022-08-19T03:21:07;4.18;;;3.78;;
10586;SDS011;5341;47.606;7.576;2022-08-19T03:23:35;3.97;;;3.60;;
10586;SDS011;5341;47.606;7.576;2022-08-19T03:26:03;4.97;;;3.50;;
10586;SDS011;5341;47.606;7.576;2022-08-19T03:28:32;3.67;;;3.22;;
10586;SDS011;5341;47.606;7.576;2022-08-19T03:31:03;3.55;;;3.25;;
10586;SDS011;5341;47.606;7.576;2022-08-19T03:33:33;4.63;;;3.30;;
10586;SDS011;5341;47.606;7.576;2022-08-19T03:36:02;3.90;;;3.50;;
10586;SDS011;5341;47.606;7.576;2022-08-19T03:38:35;3.67;;;3.30;;
10586;SDS011;5341;47.606;7.576;2022-08-19T03:41:05;4.38;;;3.25;;
10586;SDS011;5341;47.606;7.576;2022-08-19T03:43:34;3.90;;;3.50;;
10586;SDS011;5341;47.606;7.576;2022-08-19T03:46:03;4.97;;;3.70;;
10586;SDS011;5341;47.606;7.576;2022-08-19T03:48:32;7.00;;;3.60;;
10586;SDS011;5341;47.606;7.576;2022-08-19T03:51:01;5.65;;;3.35;;
10586;SDS011;5341;47.606;7.576;2022-08-19T03:53:30;3.72;;;3.42;;
10586;SDS011;5341;47.606;7.576;2022-08-19T03:56:00;4.47;;;3.60;;
10586;SDS011;5341;47.606;7.576;2022-08-19T03:58:29;8.23;;;3.63;;
10586;SDS011;5341;47.606;7.576;2022-08-19T04:00:56;4.65;;;3.50;;
10586;SDS011;5341;47.606;7.576;2022-08-19T04:03:24;4.95;;;3.70;;
10586;SDS011;5341;47.606;7.576;2022-08-19T04:05:53;4.10;;;3.25;;
10586;SDS011;5341;47.606;7.576;2022-08-19T04:08:20;4.35;;;3.20;;
10586;SDS011;5341;47.606;7.576;2022-08-19T04:10:48;4.82;;;3.70;;
10586;SDS011;5341;47.606;7.576;2022-08-19T04:13:17;5.13;;;3.50;;
10586;SDS011;5341;47.606;7.576;2022-08-19T04:15:45;4.82;;;3.55;;
10586;SDS011;5341;47.606;7.576;2022-08-19T04:18:13;4.28;;;3.72;;
10586;SDS011;5341;47.606;7.576;2022-08-19T04:20:42;7.30;;;3.85;;
10586;SDS011;5341;47.606;7.576;2022-08-19T04:23:10;4.75;;;3.20;;
10586;SDS011;5341;47.606;7.576;2022-08-19T04:25:46;4.07;;;3.63;;
10586;SDS011;5341;47.606;7.576;2022-08-19T04:28:14;4.47;;;3.35;;
10586;SDS011;5341;47.606;7.576;2022-08-19T04:30:44;4.22;;;3.83;;
10586;SDS011;5341;47.606;7.576;2022-08-19T04:33:16;4.72;;;3.50;;
10586;SDS011;5341;47.606;7.576;2022-08-19T04:35:45;3.80;;;3.35;;
10586;SDS011;5341;47.606;7.576;2022-08-19T04:38:14;7.22;;;3.45;;
10586;SDS011;5341;47.606;7.576;2022-08-19T04:40:46;6.20;;;3.72;;
10586;SDS011;5341;47.606;7.576;2022-08-19T04:43:33;6.53;;;3.20;;
10586;SDS011;5341;47.606;7.576;2022-08-19T04:46:06;3.75;;;3.38;;
10586;SDS011;5341;47.606;7.576;2022-08-19T04:48:34;5.18;;;3.28;;
10586;SDS011;5341;47.606;7.576;2022-08-19T04:51:06;3.40;;;3.10;;
10586;SDS011;5341;47.606;7.576;2022-08-19T04:53:37;4.60;;;3.45;;
10586;SDS011;5341;47.606;7.576;2022-08-19T04:56:08;6.40;;;3.58;;
10586;SDS011;5341;47.606;7.576;2022-08-19T04:58:37;3.85;;;2.97;;
10586;SDS011;5341;47.606;7.576;2022-08-19T05:01:11;4.82;;;3.00;;
10586;SDS011;5341;47.606;7.576;2022-08-19T05:03:38;3.60;;;3.30;;
10586;SDS011;5341;47.606;7.576;2022-08-19T05:06:07;3.30;;;3.00;;
10586;SDS011;5341;47.606;7.576;2022-08-19T05:08:37;3.50;;;3.20;;
10586;SDS011;5341;47.606;7.576;2022-08-19T05:11:08;5.90;;;3.50;;
10586;SDS011;5341;47.606;7.576;2022-08-19T05:13:37;3.85;;;3.13;;
10586;SDS011;5341;47.606;7.576;2022-08-19T05:16:06;4.82;;;3.42;;
10586;SDS011;5341;47.606;7.576;2022-08-19T05:18:35;4.30;;;3.20;;
10586;SDS011;5341;47.606;7.576;2022-08-19T05:21:20;3.95;;;3.55;;
10586;SDS011;5341;47.606;7.576;2022-08-19T05:24:05;4.47;;;3.70;;
10586;SDS011;5341;47.606;7.576;2022-08-19T05:26:34;3.30;;;3.00;;
10586;SDS011;5341;47.606;7.576;2022-08-19T05:29:02;3.80;;;3.50;;
10586;SDS011;5341;47.606;7.576;2022-08-19T05:31:31;4.80;;;3.42;;
10586;SDS011;5341;47.606;7.576;2022-08-19T05:34:00;4.60;;;3.28;;
10586;SDS011;5341;47.606;7.576;2022-08-19T05:36:33;4.18;;;3.78;;
10586;SDS011;5341;47.606;7.576;2022-08-19T05:39:04;3.80;;;3.50;;
10586;SDS011;5341;47.606;7.576;2022-08-19T05:41:31;4.38;;;3.97;;
10586;SDS011;5341;47.606;7.576;2022-08-19T05:44:01;5.47;;;3.95;;
10586;SDS011;5341;47.606;7.576;2022-08-19T05:46:31;4.95;;;3.60;;
10586;SDS011;5341;47.606;7.576;2022-08-19T05:49:01;5.47;;;4.05;;
10586;SDS011;5341;47.606;7.576;2022-08-19T05:51:30;4.07;;;3.53;;
10586;SDS011;5341;47.606;7.576;2022-08-19T05:53:57;4.53;;;4.13;;
10586;SDS011;5341;47.606;7.576;2022-08-19T05:56:25;4.43;;;4.03;;
10586;SDS011;5341;47.606;7.576;2022-08-19T05:58:53;4.32;;;3.92;;
10586;SDS011;5341;47.606;7.576;2022-08-19T06:01:21;5.78;;;4.20;;
10586;SDS011;5341;47.606;7.576;2022-08-19T06:03:48;4.32;;;3.85;;
10586;SDS011;5341;47.606;7.576;2022-08-19T06:06:18;4.30;;;3.90;;
10586;SDS011;5341;47.606;7.576;2022-08-19T06:08:46;4.70;;;4.13;;
10586;SDS011;5341;47.606;7.576;2022-08-19T06:11:16;4.47;;;4.07;;
10586;SDS011;5341;47.606;7.576;2022-08-19T06:13:48;6.45;;;4.32;;
10586;SDS011;5341;47.606;7.576;2022-08-19T06:16:19;4.68;;;4.13;;
10586;SDS011;5341;47.606;7.576;2022-08-19T06:18:51;6.45;;;4.28;;
10586;SDS011;5341;47.606;7.576;2022-08-19T06:21:23;4.70;;;4.30;;
10586;SDS011;5341;47.606;7.576;2022-08-19T06:23:54;4.68;;;4.18;;
10586;SDS011;5341;47.606;7.576;2022-08-19T06:26:23;5.80;;;4.47;;
10586;SDS011;5341;47.606;7.576;2022-08-19T06:28:52;5.32;;;4.45;;
10586;SDS011;5341;47.606;7.576;2022-08-19T06:31:20;4.35;;;3.97;;
10586;SDS011;5341;47.606;7.576;2022-08-19T06:33:51;5.35;;;4.43;;
10586;SDS011;5341;47.606;7.576;2022-08-19T06:36:20;5.13;;;3.95;;
10586;SDS011;5341;47.606;7.576;2022-08-19T06:38:52;5.47;;;4.32;;
10586;SDS011;5341;47.606;7.576;2022-08-19T06:41:20;5.15;;;4.32;;
10586;SDS011;5341;47.606;7.576;2022-08-19T06:43:48;4.93;;;4.43;;
10586;SDS011;5341;47.606;7.576;2022-08-19T06:46:16;6.38;;;4.05;;
10586;SDS011;5341;47.606;7.576;2022-08-19T06:48:45;4.70;;;4.30;;
10586;SDS011;5341;47.606;7.576;2022-08-19T06:51:14;4.82;;;4.38;;
10586;SDS011;5341;47.606;7.576;2022-08-19T06:53:46;5.07;;;4.57;;
10586;SDS011;5341;47.606;7.576;2022-08-19T06:56:14;5.57;;;4.63;;
10586;SDS011;5341;47.606;7.576;2022-08-19T06:58:43;6.90;;;5.53;;
10586;SDS011;5341;47.606;7.576;2022-08-19T07:01:12;6.40;;;5.80;;
10586;SDS011;5341;47.606;7.576;2022-08-19T07:03:40;5.70;;;5.15;;
10586;SDS011;5341;47.606;7.576;2022-08-19T07:06:10;6.57;;;5.13;;
10586;SDS011;5341;47.606;7.576;2022-08-19T07:08:40;5.63;;;5.13;;
10586;SDS011;5341;47.606;7.576;2022-08-19T07:11:10;6.13;;;5.32;;
10586;SDS011;5341;47.606;7.576;2022-08-19T07:13:39;5.53;;;5.00;;
10586;SDS011;5341;47.606;7.576;2022-08-19T07:16:10;5.53;;;5.03;;
10586;SDS011;5341;47.606;7.576;2022-08-19T07:18:40;6.25;;;5.65;;
10586;SDS011;5341;47.606;7.576;2022-08-19T07:21:10;5.80;;;5.20;;
10586;SDS011;5341;47.606;7.576;2022-08-19T07:23:39;5.53;;;5.03;;
10586;SDS011;5341;47.606;7.576;2022-08-19T07:26:07;5.78;;;5.15;;
10586;SDS011;5341;47.606;7.576;2022-08-19T07:28:38;6.75;;;6.00;;
10586;SDS011;5341;47.606;7.576;2022-08-19T07:31:09;5.75;;;5.25;;
10586;SDS011;5341;47.606;7.576;2022-08-19T07:33:37;6.05;;;5.43;;
10586;SDS011;5341;47.606;7.576;2022-08-19T07:36:07;6.10;;;5.50;;
10586;SDS011;5341;47.606;7.576;2022-08-19T07:38:38;5.75;;;5.20;;
10586;SDS011;5341;47.606;7.576;2022-08-19T07:41:08;6.00;;;5.50;;
10586;SDS011;5341;47.606;7.576;2022-08-19T07:43:39;10.88;;;7.68;;
10586;SDS011;5341;47.606;7.576;2022-08-19T07:46:09;5.93;;;5.43;;
10586;SDS011;5341;47.606;7.576;2022-08-19T07:48:38;7.15;;;5.65;;
10586;SDS011;5341;47.606;7.576;2022-08-19T07:51:07;6.47;;;5.90;;
10586;SDS011;5341;47.606;7.576;2022-08-19T07:53:37;5.95;;;5.35;;
10586;SDS011;5341;47.606;7.576;2022-08-19T07:56:05;7.28;;;5.30;;
10586;SDS011;5341;47.606;7.576;2022-08-19T07:58:35;7.28;;;6.57;;
10586;SDS011;5341;47.606;7.576;2022-08-19T08:01:07;6.22;;;5.60;;
10586;SDS011;5341;47.606;7.576;2022-08-19T08:03:36;8.90;;;8.10;;
10586;SDS011;5341;47.606;7.576;2022-08-19T08:06:21;8.80;;;7.70;;
10586;SDS011;5341;47.606;7.576;2022-08-19T08:09:06;8.98;;;8.07;;
10586;SDS011;5341;47.606;7.576;2022-08-19T08:11:37;7.07;;;6.47;;
10586;SDS011;5341;47.606;7.576;2022-08-19T08:14:05;8.32;;;7.63;;
10586;SDS011;5341;47.606;7.576;2022-08-19T08:16:36;7.28;;;6.65;;
10586;SDS011;5341;47.606;7.576;2022-08-19T08:19:05;8.25;;;7.47;;
10586;SDS011;5341;47.606;7.576;2022-08-19T08:21:33;9.25;;;8.38;;
10586;SDS011;5341;47.606;7.576;2022-08-19T08:24:01;8.13;;;7.10;;
10586;SDS011;5341;47.606;7.576;2022-08-19T08:26:29;9.32;;;7.57;;
10586;SDS011;5341;47.606;7.576;2022-08-19T08:28:56;7.72;;;7.03;;
10586;SDS011;5341;47.606;7.576;2022-08-19T08:31:24;8.07;;;7.38;;
10586;SDS011;5341;47.606;7.576;2022-08-19T08:33:54;9.32;;;8.32;;
10586;SDS011;5341;47.606;7.576;2022-08-19T08:36:22;11.10;;;9.18;;
10586;SDS011;5341;47.606;7.576;2022-08-19T08:38:49;9.98;;;8.13;;
10586;SDS011;5341;47.606;7.576;2022-08-19T08:41:21;10.55;;;9.55;;
10586;SDS011;5341;47.606;7.576;2022-08-19T08:44:02;10.52;;;9.52;;
10586;SDS011;5341;47.606;7.576;2022-08-19T08:46:34;9.30;;;8.38;;
10586;SDS011;5341;47.606;7.576;2022-08-19T08:49:16;8.55;;;7.75;;
10586;SDS011;5341;47.606;7.576;2022-08-19T08:51:54;10.68;;;8.77;;
10586;SDS011;5341;47.606;7.576;2022-08-19T08:54:29;9.50;;;8.60;;
10586;SDS011;5341;47.606;7.576;2022-08-19T08:57:02;10.45;;;9.32;;
10586;SDS011;5341;47.606;7.576;2022-08-19T08:59:35;10.82;;;9.88;;
10586;SDS011;5341;47.606;7.576;2022-08-19T09:02:06;9.32;;;8.48;;
10586;SDS011;5341;47.606;7.576;2022-08-19T09:04:36;11.57;;;10.35;;
10586;SDS011;5341;47.606;7.576;2022-08-19T09:07:12;11.15;;;10.10;;
10586;SDS011;5341;47.606;7.576;2022-08-19T09:09:49;11.00;;;10.00;;
10586;SDS011;5341;47.606;7.576;2022-08-19T09:12:20;11.07;;;10.07;;
10586;SDS011;5341;47.606;7.576;2022-08-19T09:15:02;9.50;;;8.68;;
10586;SDS011;5341;47.606;7.576;2022-08-19T09:17:34;12.27;;;11.18;;
10586;SDS011;5341;47.606;7.576;2022-08-19T09:20:12;11.70;;;10.60;;
10586;SDS011;5341;47.606;7.576;2022-08-19T09:22:42;12.55;;;10.95;;
10586;SDS011;5341;47.606;7.576;2022-08-19T09:25:11;10.55;;;9.15;;
10586;SDS011;5341;47.606;7.576;2022-08-19T09:27:41;11.10;;;10.10;;
10586;SDS011;5341;47.606;7.576;2022-08-19T09:30:11;13.13;;;11.93;;
10586;SDS011;5341;47.606;7.576;2022-08-19T09:32:42;14.52;;;13.15;;
10586;SDS011;5341;47.606;7.576;2022-08-19T09:35:12;12.10;;;10.98;;
10586;SDS011;5341;47.606;7.576;2022-08-19T09:37:41;12.32;;;11.02;;
10586;SDS011;5341;47.606;7.576;2022-08-19T09:40:10;13.00;;;11.70;;
10586;SDS011;5341;47.606;7.576;2022-08-19T09:42:38;13.85;;;12.60;;
10586;SDS011;5341;47.606;7.576;2022-08-19T09:45:09;14.10;;;12.60;;
10586;SDS011;5341;47.606;7.576;2022-08-19T09:47:37;12.18;;;10.98;;
10586;SDS011;5341;47.606;7.576;2022-08-19T09:50:07;13.27;;;12.07;;
10586;SDS011;5341;47.606;7.576;2022-08-19T09:52:39;14.63;;;13.23;;
10586;SDS011;5341;47.606;7.576;2022-08-19T09:55:08;13.48;;;12.07;;
10586;SDS011;5341;47.606;7.576;2022-08-19T09:57:38;13.18;;;11.90;;
10586;SDS011;5341;47.606;7.576;2022-08-19T10:00:09;13.27;;;12.07;;
10586;SDS011;5341;47.606;7.576;2022-08-19T10:02:37;14.40;;;12.90;;
10586;SDS011;5341;47.606;7.576;2022-08-19T10:05:04;13.82;;;11.85;;
10586;SDS011;5341;47.606;7.576;2022-08-19T10:07:54;13.30;;;11.52;;
10586;SDS011;5341;47.606;7.576;2022-08-19T10:10:25;12.95;;;11.65;;
10586;SDS011;5341;47.606;7.576;2022-08-19T10:12:55;14.15;;;12.75;;
10586;SDS011;5341;47.606;7.576;2022-08-19T10:15:23;13.18;;;11.88;;
10586;SDS011;5341;47.606;7.576;2022-08-19T10:17:50;13.30;;;12.00;;
10586;SDS011;5341;47.606;7.576;2022-08-19T10:20:20;13.63;;;12.25;;
10586;SDS011;5341;47.606;7.576;2022-08-19T10:22:49;14.52;;;13.13;;
10586;SDS011;5341;47.606;7.576;2022-08-19T10:25:19;14.32;;;12.98;;
10586;SDS011;5341;47.606;7.576;2022-08-19T10:27:47;12.90;;;11.70;;
10586;SDS011;5341;47.606;7.576;2022-08-19T10:30:14;15.73;;;14.15;;
10586;SDS011;5341;47.606;7.576;2022-08-19T10:32:42;16.63;;;14.93;;
10586;SDS011;5341;47.606;7.576;2022-08-19T10:35:11;15.88;;;14.38;;
10586;SDS011;5341;47.606;7.576;2022-08-19T10:37:39;15.88;;;14.38;;
10586;SDS011;5341;47.606;7.576;2022-08-19T10:40:08;16.35;;;14.48;;
10586;SDS011;5341;47.606;7.576;2022-08-19T10:42:38;15.48;;;14.07;;
10586;SDS011;5341;47.606;7.576;2022-08-19T10:45:06;15.18;;;13.73;;
10586;SDS011;5341;47.606;7.576;2022-08-19T10:47:35;16.08;;;14.57;;
10586;SDS011;5341;47.606;7.576;2022-08-19T10:50:03;16.20;;;14.60;;
10586;SDS011;5341;47.606;7.576;2022-08-19T10:52:49;16.25;;;14.63;;
10586;SDS011;5341;47.606;7.576;2022-08-19T10:55:17;17.05;;;15.25;;
10586;SDS011;5341;47.606;7.576;2022-08-19T10:58:06;15.93;;;14.32;;
10586;SDS011;5341;47.606;7.576;2022-08-19T11:00:37;17.33;;;15.73;;
10586;SDS011;5341;47.606;7.576;2022-08-19T11:03:05;16.60;;;14.80;;
10586;SDS011;5341;47.606;7.576;2022-08-19T11:05:33;16.85;;;14.73;;
10586;SDS011;5341;47.606;7.576;2022-08-19T11:08:00;19.23;;;16.08;;
10586;SDS011;5341;47.606;7.576;2022-08-19T11:10:28;16.67;;;14.98;;
10586;SDS011;5341;47.606;7.576;2022-08-19T11:12:56;16.35;;;14.63;;
10586;SDS011;5341;47.606;7.576;2022-08-19T11:15:25;15.73;;;14.32;;
10586;SDS011;5341;47.606;7.576;2022-08-19T11:17:54;17.98;;;16.17;;
10586;SDS011;5341;47.606;7.576;2022-08-19T11:20:21;15.45;;;13.98;;
10586;SDS011;5341;47.606;7.576;2022-08-19T11:22:51;17.83;;;15.80;;
10586;SDS011;5341;47.606;7.576;2022-08-19T11:25:19;15.77;;;14.27;;
10586;SDS011;5341;47.606;7.576;2022-08-19T11:27:47;17.25;;;14.70;;
10586;SDS011;5341;47.606;7.576;2022-08-19T11:30:17;15.82;;;14.30;;
10586;SDS011;5341;47.606;7.576;2022-08-19T11:32:46;15.77;;;14.05;;
10586;SDS011;5341;47.606;7.576;2022-08-19T11:35:14;15.63;;;14.18;;
10586;SDS011;5341;47.606;7.576;2022-08-19T11:37:41;18.92;;;17.02;;
10586;SDS011;5341;47.606;7.576;2022-08-19T11:40:09;17.67;;;15.88;;
10586;SDS011;5341;47.606;7.576;2022-08-19T11:42:37;17.85;;;16.05;;
10586;SDS011;5341;47.606;7.576;2022-08-19T11:45:25;17.48;;;15.88;;
10586;SDS011;5341;47.606;7.576;2022-08-19T11:47:55;17.08;;;15.38;;
10586;SDS011;5341;47.606;7.576;2022-08-19T11:50:23;17.55;;;15.77;;
10586;SDS011;5341;47.606;7.576;2022-08-19T11:52:53;17.83;;;16.05;;
10586;SDS011;5341;47.606;7.576;2022-08-19T11:55:21;19.35;;;17.35;;
10586;SDS011;5341;47.606;7.576;2022-08-19T11:57:49;17.08;;;15.48;;
10586;SDS011;5341;47.606;7.576;2022-08-19T12:00:16;16.45;;;14.85;;
10586;SDS011;5341;47.606;7.576;2022-08-19T12:02:44;17.67;;;16.08;;
10586;SDS011;5341;47.606;7.576;2022-08-19T12:05:13;17.35;;;15.65;;
10586;SDS011;5341;47.606;7.576;2022-08-19T12:07:41;17.38;;;15.77;;
10586;SDS011;5341;47.606;7.576;2022-08-19T12:10:09;17.40;;;15.80;;
10586;SDS011;5341;47.606;7.576;2022-08-19T12:12:37;16.65;;;15.15;;
10586;SDS011;5341;47.606;7.576;2022-08-19T12:15:08;17.95;;;15.45;;
10586;SDS011;5341;47.606;7.576;2022-08-19T12:17:38;16.88;;;15.27;;
10586;SDS011;5341;47.606;7.576;2022-08-19T12:20:07;17.35;;;15.75;;
10586;SDS011;5341;47.606;7.576;2022-08-19T12:22:38;16.98;;;15.38;;
10586;SDS011;5341;47.606;7.576;2022-08-19T12:25:08;16.42;;;14.75;;
10586;SDS011;5341;47.606;7.576;2022-08-19T12:27:40;17.00;;;15.20;;
10586;SDS011;5341;47.606;7.576;2022-08-19T12:30:09;16.27;;;14.80;;
10586;SDS011;5341;47.606;7.576;2022-08-19T12:32:39;16.40;;;14.88;;
10586;SDS011;5341;47.606;7.576;2022-08-19T12:35:08;16.13;;;14.60;;
10586;SDS011;5341;47.606;7.576;2022-08-19T12:37:38;16.23;;;14.55;;
10586;SDS011;5341;47.606;7.576;2022-08-19T12:40:07;16.15;;;14.60;;
10586;SDS011;5341;47.606;7.576;2022-08-19T12:42:37;17.20;;;15.68;;
10586;SDS011;5341;47.606;7.576;2022-08-19T12:45:08;17.58;;;15.88;;
10586;SDS011;5341;47.606;7.576;2022-08-19T12:47:36;17.75;;;16.05;;
10586;SDS011;5341;47.606;7.576;2022-08-19T12:50:04;18.27;;;16.50;;
10586;SDS011;5341;47.606;7.576;2022-08-19T12:52:34;15.43;;;14.02;;
10586;SDS011;5341;47.606;7.576;2022-08-19T12:55:05;17.58;;;15.88;;
10586;SDS011;5341;47.606;7.576;2022-08-19T12:57:34;18.63;;;16.77;;
10586;SDS011;5341;47.606;7.576;2022-08-19T13:00:04;19.85;;;17.30;;
10586;SDS011;5341;47.606;7.576;2022-08-19T13:02:36;18.63;;;16.85;;
10586;SDS011;5341;47.606;7.576;2022-08-19T13:05:04;18.60;;;16.77;;
10586;SDS011;5341;47.606;7.576;2022-08-19T13:07:36;15.38;;;14.07;;
10586;SDS011;5341;47.606;7.576;2022-08-19T13:10:07;15.32;;;13.57;;
10586;SDS011;5341;47.606;7.576;2022-08-19T13:12:37;15.60;;;14.20;;
10586;SDS011;5341;47.606;7.576;2022-08-19T13:15:09;14.23;;;12.68;;
10586;SDS011;5341;47.606;7.576;2022-08-19T13:17:46;23.25;;;12.68;;
10586;SDS011;5341;47.606;7.576;2022-08-19T13:20:19;14.50;;;12.70;;
10586;SDS011;5341;47.606;7.576;2022-08-19T13:22:47;33.13;;;13.20;;
10586;SDS011;5341;47.606;7.576;2022-08-19T13:25:17;19.95;;;12.82;;
10586;SDS011;5341;47.606;7.576;2022-08-19T13:27:45;12.30;;;11.20;;
10586;SDS011;5341;47.606;7.576;2022-08-19T13:30:14;22.88;;;12.18;;
10586;SDS011;5341;47.606;7.576;2022-08-19T13:33:00;12.50;;;11.20;;
10586;SDS011;5341;47.606;7.576;2022-08-19T13:35:44;20.35;;;11.68;;
10586;SDS011;5341;47.606;7.576;2022-08-19T13:38:15;13.75;;;12.45;;
10586;SDS011;5341;47.606;7.576;2022-08-19T13:40:46;16.30;;;11.40;;
10586;SDS011;5341;47.606;7.576;2022-08-19T13:43:15;13.25;;;11.95;;
10586;SDS011;5341;47.606;7.576;2022-08-19T13:45:43;14.73;;;13.32;;
10586;SDS011;5341;47.606;7.576;2022-08-19T13:48:11;14.13;;;12.70;;
10586;SDS011;5341;47.606;7.576;2022-08-19T13:50:39;13.90;;;12.45;;
10586;SDS011;5341;47.606;7.576;2022-08-19T13:53:08;14.93;;;13.52;;
10586;SDS011;5341;47.606;7.576;2022-08-19T13:55:38;13.98;;;12.63;;
10586;SDS011;5341;47.606;7.576;2022-08-19T13:58:07;14.55;;;12.98;;
10586;SDS011;5341;47.606;7.576;2022-08-19T14:00:38;15.13;;;13.82;;
10586;SDS011;5341;47.606;7.576;2022-08-19T14:03:08;17.42;;;14.38;;
10586;SDS011;5341;47.606;7.576;2022-08-19T14:05:36;16.88;;;15.27;;
10586;SDS011;5341;47.606;7.576;2022-08-19T14:08:07;17.45;;;15.65;;
10586;SDS011;5341;47.606;7.576;2022-08-19T14:10:34;18.73;;;16.77;;
10586;SDS011;5341;47.606;7.576;2022-08-19T14:13:03;18.13;;;16.48;;
10586;SDS011;5341;47.606;7.576;2022-08-19T14:15:35;16.75;;;15.13;;
10586;SDS011;5341;47.606;7.576;2022-08-19T14:18:09;17.45;;;15.68;;
10586;SDS011;5341;47.606;7.576;2022-08-19T14:20:37;16.75;;;15.25;;
10586;SDS011;5341;47.606;7.576;2022-08-19T14:23:06;17.50;;;15.88;;
10586;SDS011;5341;47.606;7.576;2022-08-19T14:25:34;16.08;;;14.55;;
10586;SDS011;5341;47.606;7.576;2022-08-19T14:28:02;15.80;;;14.20;;
10586;SDS011;5341;47.606;7.576;2022-08-19T14:30:33;14.77;;;13.38;;
10586;SDS011;5341;47.606;7.576;2022-08-19T14:33:04;14.98;;;13.60;;
10586;SDS011;5341;47.606;7.576;2022-08-19T14:35:33;15.70;;;14.30;;
10586;SDS011;5341;47.606;7.576;2022-08-19T14:38:02;15.95;;;14.35;;
10586;SDS011;5341;47.606;7.576;2022-08-19T14:40:31;18.70;;;14.98;;
10586;SDS011;5341;47.606;7.576;2022-08-19T14:43:00;17.48;;;15.88;;
10586;SDS011;5341;47.606;7.576;2022-08-19T14:45:31;17.00;;;15.45;;
10586;SDS011;5341;47.606;7.576;2022-08-19T14:48:01;16.17;;;14.60;;
10586;SDS011;5341;47.606;7.576;2022-08-19T14:50:30;17.00;;;15.43;;
10586;SDS011;5341;47.606;7.576;2022-08-19T14:52:58;16.63;;;14.93;;
10586;SDS011;5341;47.606;7.576;2022-08-19T14:55:27;15.57;;;13.95;;
10586;SDS011;5341;47.606;7.576;2022-08-19T14:57:55;14.48;;;13.10;;
10586;SDS011;5341;47.606;7.576;2022-08-19T15:00:22;14.02;;;12.70;;
10586;SDS011;5341;47.606;7.576;2022-08-19T15:02:50;13.25;;;11.95;;
10586;SDS011;5341;47.606;7.576;2022-08-19T15:05:20;12.13;;;10.98;;
10586;SDS011;5341;47.606;7.576;2022-08-19T15:07:47;11.30;;;10.38;;